createdAt,value
2022-12-12T00:01:13.157Z,35.93
2022-12-12T00:03:39.921Z,35.03
2022-12-12T00:06:06.799Z,36.27
2022-12-12T00:08:33.482Z,32.63
2022-12-12T00:11:00.228Z,31.57
2022-12-12T00:13:26.927Z,34.07
2022-12-12T00:15:53.622Z,31.80
2022-12-12T00:18:20.285Z,35.53
2022-12-12T00:20:55.756Z,34.57
2022-12-12T00:23:24.911Z,35.47
2022-12-12T00:26:00.552Z,29.53
2022-12-12T00:28:27.655Z,35.50
2022-12-12T00:30:54.694Z,37.93
2022-12-12T00:33:21.395Z,38.00
2022-12-12T00:35:54.366Z,35.53
2022-12-12T00:38:23.086Z,38.20
2022-12-12T00:40:54.985Z,39.17
2022-12-12T00:43:21.614Z,37.17
2022-12-12T00:45:48.309Z,36.33
2022-12-12T00:48:14.975Z,37.30
2022-12-12T00:50:41.635Z,36.77
2022-12-12T00:53:08.281Z,34.30
2022-12-12T00:55:34.969Z,35.00
2022-12-12T00:58:01.704Z,34.67
2022-12-12T01:00:28.954Z,31.87
2022-12-12T01:02:59.321Z,33.27
2022-12-12T01:05:26.448Z,34.50
2022-12-12T01:07:54.051Z,38.00
2022-12-12T01:10:21.145Z,34.30
2022-12-12T01:12:47.770Z,34.53
2022-12-12T01:15:14.867Z,37.40
2022-12-12T01:17:41.913Z,37.93
2022-12-12T01:20:20.353Z,34.57
2022-12-12T01:22:47.365Z,39.80
2022-12-12T01:25:15.540Z,37.37
2022-12-12T01:27:42.878Z,36.57
2022-12-12T01:30:13.980Z,36.70
2022-12-12T01:32:40.653Z,35.43
2022-12-12T01:35:08.439Z,33.93
2022-12-12T01:37:36.185Z,36.13
2022-12-12T01:40:05.416Z,32.23
2022-12-12T01:42:32.587Z,33.30
2022-12-12T01:44:59.862Z,32.20
2022-12-12T01:47:27.115Z,32.30
2022-12-12T01:50:01.804Z,32.87
2022-12-12T01:52:45.537Z,28.80
2022-12-12T01:55:19.139Z,27.13
2022-12-12T01:57:49.365Z,28.20
2022-12-12T02:00:16.910Z,29.47
2022-12-12T02:02:46.210Z,28.77
2022-12-12T02:05:30.787Z,28.80
2022-12-12T02:08:00.938Z,26.90
2022-12-12T02:10:27.837Z,30.30
2022-12-12T02:13:02.020Z,29.23
2022-12-12T02:15:38.974Z,29.07
2022-12-12T02:18:24.240Z,30.10
2022-12-12T02:21:06.925Z,33.03
2022-12-12T02:24:07.677Z,29.07
2022-12-12T02:27:03.895Z,29.23
2022-12-12T02:29:50.932Z,32.03
2022-12-12T02:32:43.825Z,32.87
2022-12-12T02:35:39.575Z,29.23
2022-12-12T02:38:21.308Z,26.67
2022-12-12T02:40:59.014Z,32.17
2022-12-12T02:43:45.066Z,31.53
2022-12-12T02:46:21.021Z,30.07
2022-12-12T02:49:09.723Z,33.30
2022-12-12T02:51:38.148Z,31.07
2022-12-12T02:54:11.978Z,31.83
2022-12-12T02:56:41.698Z,26.97
2022-12-12T02:59:09.386Z,28.63
2022-12-12T03:01:49.183Z,31.03
2022-12-12T03:04:43.317Z,27.30
2022-12-12T03:07:49.111Z,26.67
2022-12-12T03:10:36.962Z,28.00
2022-12-12T03:13:35.865Z,21.40
2022-12-12T03:16:12.647Z,26.87
2022-12-12T03:18:57.551Z,25.73
2022-12-12T03:21:37.421Z,26.37
2022-12-12T03:24:40.993Z,28.03
2022-12-12T03:27:14.108Z,25.90
2022-12-12T03:29:55.455Z,23.90
2022-12-12T03:32:31.840Z,22.43
2022-12-12T03:35:03.737Z,24.33
2022-12-12T03:37:35.074Z,21.17
2022-12-12T03:40:15.827Z,23.50
2022-12-12T03:42:50.676Z,24.43
2022-12-12T03:45:52.455Z,24.87
2022-12-12T03:48:29.674Z,22.20
2022-12-12T03:50:59.615Z,26.10
2022-12-12T03:53:59.324Z,26.33
2022-12-12T03:56:39.166Z,23.43
2022-12-12T03:59:11.943Z,26.07
2022-12-12T04:01:50.279Z,27.20
2022-12-12T04:04:38.750Z,22.87
2022-12-12T04:07:29.378Z,25.73
2022-12-12T04:10:14.848Z,24.83
2022-12-12T04:13:00.963Z,23.20
2022-12-12T04:15:47.294Z,24.00
2022-12-12T04:18:33.161Z,23.23
2022-12-12T04:21:36.485Z,25.17
2022-12-12T04:24:18.698Z,25.37
2022-12-12T04:26:54.411Z,26.73
2022-12-12T04:29:39.797Z,26.83
2022-12-12T04:32:42.174Z,22.20
2022-12-12T04:35:17.023Z,23.70
2022-12-12T04:37:49.138Z,23.97
2022-12-12T04:40:42.377Z,24.10
2022-12-12T04:43:17.217Z,24.80
2022-12-12T04:45:52.211Z,27.93
2022-12-12T04:48:26.064Z,25.40
2022-12-12T04:50:53.372Z,26.30
2022-12-12T04:53:32.476Z,23.57
2022-12-12T04:56:01.430Z,24.90
2022-12-12T04:58:28.246Z,27.30
2022-12-12T05:01:28.043Z,23.70
2022-12-12T05:03:58.456Z,25.93
2022-12-12T05:06:35.461Z,23.77
2022-12-12T05:09:03.199Z,23.20
2022-12-12T05:11:30.535Z,22.90
2022-12-12T05:13:57.204Z,25.07
2022-12-12T05:16:34.332Z,23.13
2022-12-12T05:19:01.753Z,24.73
2022-12-12T05:21:28.646Z,22.93
2022-12-12T05:23:55.359Z,24.07
2022-12-12T05:26:27.841Z,24.97
2022-12-12T05:28:55.180Z,22.43
2022-12-12T05:31:22.541Z,23.03
2022-12-12T05:33:50.035Z,21.80
2022-12-12T05:36:17.607Z,23.67
2022-12-12T05:38:44.313Z,24.63
2022-12-12T05:41:11.755Z,24.63
2022-12-12T05:43:39.070Z,23.13
2022-12-12T05:46:06.700Z,22.50
2022-12-12T05:48:34.190Z,20.67
2022-12-12T05:51:02.066Z,23.40
2022-12-12T05:53:29.014Z,23.40
2022-12-12T05:55:55.745Z,22.43
2022-12-12T05:58:23.117Z,24.87
2022-12-12T06:00:51.484Z,22.80
2022-12-12T06:03:19.088Z,22.27
2022-12-12T06:05:46.128Z,23.30
2022-12-12T06:08:13.129Z,23.60
2022-12-12T06:10:39.804Z,22.63
2022-12-12T06:13:06.766Z,78.20
2022-12-12T06:15:33.596Z,27.43
2022-12-12T06:18:00.340Z,37.93
2022-12-12T06:20:27.096Z,31.20
2022-12-12T06:22:54.145Z,31.10
2022-12-12T06:25:21.295Z,28.73
2022-12-12T06:27:47.966Z,25.40
2022-12-12T06:30:14.973Z,25.50
2022-12-12T06:32:41.947Z,24.63
2022-12-12T06:35:09.520Z,25.37
2022-12-12T06:37:36.553Z,22.03
2022-12-12T06:40:04.884Z,24.80
2022-12-12T06:42:31.613Z,24.90
2022-12-12T06:44:58.256Z,25.23
2022-12-12T06:47:24.987Z,25.17
2022-12-12T06:49:51.656Z,37.87
2022-12-12T06:52:19.120Z,24.90
2022-12-12T06:54:46.367Z,27.43
2022-12-12T06:57:14.336Z,44.87
2022-12-12T06:59:41.268Z,44.70
2022-12-12T07:02:11.016Z,38.10
2022-12-12T07:04:37.858Z,29.63
2022-12-12T07:07:04.598Z,31.03
2022-12-12T07:09:31.263Z,25.07
2022-12-12T07:11:58.099Z,28.07
2022-12-12T07:14:24.790Z,33.63
2022-12-12T07:16:51.528Z,28.23
2022-12-12T07:19:18.134Z,25.90
2022-12-12T07:21:44.850Z,24.93
2022-12-12T07:24:12.681Z,28.40
2022-12-12T07:26:39.370Z,30.57
2022-12-12T07:29:06.107Z,31.37
2022-12-12T07:31:33.000Z,26.13
2022-12-12T07:33:59.721Z,27.73
2022-12-12T07:36:26.527Z,27.43
2022-12-12T07:38:53.327Z,25.23
2022-12-12T07:41:20.895Z,25.07
2022-12-12T07:43:49.161Z,27.43
2022-12-12T07:46:20.124Z,23.07
2022-12-12T07:48:47.184Z,26.20
2022-12-12T07:51:14.768Z,23.27
2022-12-12T07:53:41.995Z,21.67
2022-12-12T07:56:10.785Z,22.63
2022-12-12T07:58:38.045Z,25.93
2022-12-12T08:01:18.184Z,22.00
2022-12-12T08:03:46.217Z,23.07
2022-12-12T08:06:14.130Z,24.27
2022-12-12T08:08:40.818Z,24.20
2022-12-12T08:11:10.074Z,20.97
2022-12-12T08:13:38.075Z,21.30
2022-12-12T08:16:07.230Z,21.27
2022-12-12T08:18:34.208Z,20.77
2022-12-12T08:21:00.947Z,19.37
2022-12-12T08:23:27.613Z,22.67
2022-12-12T08:25:54.327Z,21.57
2022-12-12T08:28:21.018Z,18.13
2022-12-12T08:30:51.563Z,18.77
2022-12-12T08:33:18.680Z,18.83
2022-12-12T08:35:46.034Z,19.57
2022-12-12T08:38:13.375Z,18.43
2022-12-12T08:40:41.760Z,18.90
2022-12-12T08:43:09.590Z,21.60
2022-12-12T08:45:38.003Z,18.20
2022-12-12T08:48:06.436Z,17.17
2022-12-12T08:50:33.855Z,16.50
2022-12-12T08:53:00.643Z,16.67
2022-12-12T08:55:27.355Z,19.17
2022-12-12T08:57:53.994Z,18.77
2022-12-12T09:00:20.776Z,16.30
2022-12-12T09:02:47.518Z,20.73
2022-12-12T09:05:14.665Z,21.77
2022-12-12T09:07:41.684Z,18.73
2022-12-12T09:10:09.165Z,17.00
2022-12-12T09:12:41.390Z,19.57
2022-12-12T09:15:09.722Z,24.23
2022-12-12T09:17:36.639Z,21.40
2022-12-12T09:20:04.131Z,19.43
2022-12-12T09:22:31.368Z,23.40
2022-12-12T09:25:01.145Z,19.40
2022-12-12T09:27:27.870Z,20.60
2022-12-12T09:29:54.592Z,20.20
2022-12-12T09:32:24.757Z,16.00
2022-12-12T09:34:51.820Z,17.63
2022-12-12T09:37:18.594Z,19.17
2022-12-12T09:39:45.301Z,19.70
2022-12-12T09:42:24.275Z,19.77
2022-12-12T09:44:53.950Z,19.17
2022-12-12T09:47:34.485Z,22.50
2022-12-12T09:50:11.057Z,17.10
2022-12-12T09:52:38.676Z,18.23
2022-12-12T09:55:20.404Z,18.83
2022-12-12T09:58:07.265Z,18.33
2022-12-12T10:00:39.044Z,19.73
2022-12-12T10:03:22.617Z,19.63
2022-12-12T10:09:09.158Z,20.80
2022-12-12T10:11:54.350Z,18.27
2022-12-12T10:14:58.136Z,18.17
2022-12-12T10:17:37.460Z,17.43
2022-12-12T10:20:15.070Z,18.27
2022-12-12T10:22:50.942Z,19.80
2022-12-12T10:25:32.539Z,19.33
2022-12-12T10:28:24.212Z,19.40
2022-12-12T10:31:00.161Z,25.10
2022-12-12T10:33:43.277Z,18.50
2022-12-12T10:36:27.168Z,20.13
2022-12-12T10:39:14.184Z,18.07
2022-12-12T10:41:47.064Z,17.93
2022-12-12T10:44:34.216Z,18.00
2022-12-12T10:47:06.929Z,16.63
2022-12-12T10:49:34.560Z,17.83
2022-12-12T10:52:06.527Z,26.23
2022-12-12T10:54:54.599Z,24.00
2022-12-12T10:57:26.174Z,18.60
2022-12-12T10:59:56.364Z,18.13
2022-12-12T11:02:23.094Z,18.40
2022-12-12T11:04:57.142Z,18.70
2022-12-12T11:07:23.866Z,20.40
2022-12-12T11:09:50.557Z,18.57
2022-12-12T11:12:17.302Z,18.97
2022-12-12T11:14:53.227Z,19.93
2022-12-12T11:17:30.181Z,20.37
2022-12-12T11:19:59.637Z,18.53
2022-12-12T11:22:27.508Z,16.67
2022-12-12T11:24:54.732Z,20.80
2022-12-12T11:27:29.194Z,21.10
2022-12-12T11:30:02.386Z,19.67
2022-12-12T11:32:46.325Z,18.00
2022-12-12T11:35:33.166Z,18.90
2022-12-12T11:38:17.063Z,19.47
2022-12-12T11:40:44.799Z,17.67
2022-12-12T11:43:31.124Z,18.53
2022-12-12T11:46:15.532Z,20.37
2022-12-12T11:48:51.301Z,18.07
2022-12-12T11:51:33.330Z,17.47
2022-12-12T11:54:01.670Z,17.10
2022-12-12T11:56:37.512Z,18.00
2022-12-12T11:59:32.584Z,18.17
2022-12-12T12:02:30.124Z,19.60
2022-12-12T12:05:23.591Z,19.23
2022-12-12T12:08:28.872Z,17.63
2022-12-12T12:11:38.947Z,18.50
2022-12-12T12:14:27.554Z,17.67
2022-12-12T12:17:15.848Z,19.67
2022-12-12T12:19:53.587Z,19.50
2022-12-12T12:22:57.235Z,17.77
2022-12-12T12:25:49.767Z,16.33
2022-12-12T12:28:37.696Z,20.13
2022-12-12T12:31:30.676Z,19.10
2022-12-12T12:34:33.443Z,18.37
2022-12-12T12:37:47.909Z,21.97
2022-12-12T12:40:43.622Z,18.67
2022-12-12T12:43:33.610Z,20.13
2022-12-12T12:46:18.641Z,17.60
2022-12-12T12:48:53.054Z,15.20
2022-12-12T12:51:38.634Z,19.83
2022-12-12T12:54:23.646Z,22.07
2022-12-12T12:57:00.429Z,18.77
2022-12-12T12:59:36.560Z,18.63
2022-12-12T13:02:26.968Z,16.33
2022-12-12T13:05:07.064Z,19.30
2022-12-12T13:07:46.263Z,18.00
2022-12-12T13:10:28.308Z,20.73
2022-12-12T13:13:25.811Z,18.30
2022-12-12T13:16:13.892Z,20.30
2022-12-12T13:18:45.971Z,18.63
2022-12-12T13:21:24.594Z,18.80
2022-12-12T13:24:02.842Z,19.53
2022-12-12T13:26:45.190Z,18.20
2022-12-12T13:29:31.740Z,18.30
2022-12-12T13:32:17.299Z,18.40
2022-12-12T13:34:49.630Z,19.67
2022-12-12T13:37:19.419Z,20.70
2022-12-12T13:39:46.961Z,19.03
2022-12-12T13:42:14.834Z,18.37
2022-12-12T13:44:46.821Z,20.00
2022-12-12T13:47:22.745Z,16.27
2022-12-12T13:49:52.424Z,17.47
2022-12-12T13:52:24.006Z,44.20
2022-12-12T13:54:53.220Z,27.93
2022-12-12T13:57:29.567Z,22.43
2022-12-12T13:59:56.221Z,19.37
2022-12-12T14:02:25.723Z,20.17
2022-12-12T14:05:21.339Z,18.33
2022-12-12T14:07:53.751Z,21.17
2022-12-12T14:10:38.464Z,18.93
2022-12-12T14:13:23.668Z,22.53
2022-12-12T14:16:01.463Z,31.80
2022-12-12T14:18:41.376Z,20.53
2022-12-12T14:21:13.705Z,17.67
2022-12-12T14:23:42.924Z,18.07
2022-12-12T14:26:27.946Z,17.80
2022-12-12T14:29:16.374Z,16.90
2022-12-12T14:31:53.443Z,15.67
2022-12-12T14:34:42.496Z,17.40
2022-12-12T14:37:15.325Z,20.37
2022-12-12T14:39:44.789Z,18.03
2022-12-12T14:43:19.102Z,14.77
2022-12-12T14:45:25.312Z,18.70
2022-12-12T14:48:26.131Z,20.90
2022-12-12T14:50:58.890Z,20.87
2022-12-12T14:53:28.878Z,21.43
2022-12-12T14:56:02.174Z,18.47
2022-12-12T14:58:32.179Z,16.40
2022-12-12T15:01:01.720Z,15.83
2022-12-12T15:03:55.035Z,17.77
2022-12-12T15:06:28.991Z,17.87
2022-12-12T15:08:58.480Z,17.80
2022-12-12T15:11:31.497Z,18.13
2022-12-12T15:14:00.704Z,21.13
2022-12-12T15:16:34.703Z,20.87
2022-12-12T15:19:02.146Z,16.17
2022-12-12T15:21:32.923Z,19.53
2022-12-12T15:23:59.847Z,19.97
2022-12-12T15:26:30.815Z,18.10
2022-12-12T15:28:57.801Z,21.73
2022-12-12T15:31:24.989Z,20.03
2022-12-12T15:33:51.798Z,19.90
2022-12-12T15:36:27.747Z,19.27
2022-12-12T15:39:12.766Z,17.83
2022-12-12T15:41:39.826Z,19.60
2022-12-12T15:44:07.004Z,20.03
2022-12-12T15:46:33.951Z,23.83
2022-12-12T15:49:00.596Z,30.33
2022-12-12T15:51:32.210Z,33.93
2022-12-12T15:54:00.443Z,32.93
2022-12-12T15:56:31.544Z,28.17
2022-12-12T15:59:04.399Z,25.50
2022-12-12T16:01:31.418Z,20.97
2022-12-12T16:04:18.402Z,20.93
2022-12-12T16:06:46.885Z,25.13
2022-12-12T16:09:22.028Z,23.07
2022-12-12T16:11:58.867Z,20.03
2022-12-12T16:14:42.947Z,22.07
2022-12-12T16:17:20.327Z,23.67
2022-12-12T16:20:02.407Z,22.50
2022-12-12T16:22:45.750Z,20.60
2022-12-12T16:25:32.970Z,22.27
2022-12-12T16:28:23.199Z,19.57
2022-12-12T16:30:58.206Z,23.00
2022-12-12T16:33:37.485Z,21.37
2022-12-12T16:36:07.459Z,23.23
2022-12-12T16:38:35.119Z,19.73
2022-12-12T16:41:05.409Z,20.20
2022-12-12T16:43:32.330Z,24.40
2022-12-12T16:45:59.333Z,28.07
2022-12-12T16:48:35.214Z,25.37
2022-12-12T16:51:04.851Z,22.47
2022-12-12T16:53:31.750Z,23.20
2022-12-12T16:55:58.652Z,24.20
2022-12-12T16:58:25.405Z,23.47
2022-12-12T17:00:52.843Z,23.17
2022-12-12T17:03:20.812Z,26.73
2022-12-12T17:05:48.232Z,24.93
2022-12-12T17:08:16.013Z,27.80
2022-12-12T17:10:46.918Z,24.80
2022-12-12T17:13:17.416Z,27.27
2022-12-12T17:15:44.156Z,22.50
2022-12-12T17:18:11.230Z,29.23
2022-12-12T17:20:38.350Z,24.10
2022-12-12T17:25:50.567Z,22.37
2022-12-12T17:28:19.755Z,20.87
2022-12-12T17:30:49.895Z,23.80
2022-12-12T17:33:18.192Z,24.30
2022-12-12T17:35:45.531Z,21.63
2022-12-12T17:38:22.565Z,24.80
2022-12-12T17:40:50.494Z,25.33
2022-12-12T17:43:21.049Z,23.13
2022-12-12T17:46:01.175Z,26.70
2022-12-12T17:48:30.551Z,28.30
2022-12-12T17:51:02.428Z,27.70
2022-12-12T17:53:38.075Z,34.63
2022-12-12T17:56:16.385Z,31.97
2022-12-12T17:58:45.299Z,27.83
2022-12-12T18:01:21.246Z,28.37
2022-12-12T18:03:49.030Z,31.67
2022-12-12T18:06:16.635Z,42.23
2022-12-12T18:08:43.659Z,62.30
2022-12-12T18:11:16.915Z,79.13
2022-12-12T18:13:44.903Z,42.87
2022-12-12T18:16:13.238Z,33.77
2022-12-12T18:18:40.955Z,50.23
2022-12-12T18:21:43.312Z,34.13
2022-12-12T18:24:07.119Z,31.40
2022-12-12T18:26:33.959Z,30.87
2022-12-12T18:29:04.074Z,32.27
2022-12-12T18:31:31.508Z,39.80
2022-12-12T18:33:59.009Z,40.90
2022-12-12T18:36:28.278Z,41.30
2022-12-12T18:38:56.289Z,41.20
2022-12-12T18:41:23.508Z,33.57
2022-12-12T18:43:50.226Z,36.43
2022-12-12T18:46:19.262Z,29.57
2022-12-12T18:48:47.456Z,29.43
2022-12-12T18:51:17.435Z,30.67
2022-12-12T18:53:45.143Z,29.10
2022-12-12T18:56:18.315Z,30.97
2022-12-12T18:58:45.600Z,32.17
2022-12-12T19:01:19.023Z,28.70
2022-12-12T19:03:48.193Z,25.07
2022-12-12T19:06:17.574Z,29.53
2022-12-12T19:08:44.741Z,30.33
2022-12-12T19:11:12.223Z,32.13
2022-12-12T19:13:39.240Z,32.37
2022-12-12T19:16:08.034Z,29.83
2022-12-12T19:18:35.204Z,34.70
2022-12-12T19:21:10.790Z,32.53
2022-12-12T19:23:39.420Z,34.67
2022-12-12T19:26:07.420Z,36.53
2022-12-12T19:28:34.958Z,33.50
2022-12-12T19:31:07.719Z,33.60
2022-12-12T19:33:34.788Z,32.63
2022-12-12T19:36:01.538Z,35.63
2022-12-12T19:38:28.271Z,30.53
2022-12-12T19:40:55.080Z,30.80
2022-12-12T19:43:21.834Z,31.73
2022-12-12T19:45:48.611Z,36.97
2022-12-12T19:48:15.318Z,35.83
2022-12-12T19:50:41.961Z,41.10
2022-12-12T19:53:09.014Z,43.87
2022-12-12T19:55:35.662Z,39.10
2022-12-12T19:58:03.902Z,42.77
2022-12-12T20:00:30.644Z,41.37
2022-12-12T20:02:57.465Z,41.87
2022-12-12T20:05:24.208Z,41.80
2022-12-12T20:07:50.945Z,44.10
2022-12-12T20:10:17.649Z,46.77
2022-12-12T20:12:56.112Z,84.00
2022-12-12T20:15:24.823Z,80.53
2022-12-12T20:17:51.571Z,65.40
2022-12-12T20:20:18.290Z,53.83
2022-12-12T20:22:45.092Z,44.97
2022-12-12T20:25:11.829Z,47.90
2022-12-12T20:27:38.532Z,50.80
2022-12-12T20:30:06.417Z,45.80
2022-12-12T20:32:33.098Z,44.10
2022-12-12T20:35:00.950Z,43.33
2022-12-12T20:37:27.628Z,44.83
2022-12-12T20:39:54.365Z,44.53
2022-12-12T20:42:21.086Z,36.57
2022-12-12T20:44:49.006Z,33.97
2022-12-12T20:47:17.317Z,34.53
2022-12-12T20:49:44.139Z,33.50
2022-12-12T20:52:11.041Z,30.33
2022-12-12T20:54:37.719Z,31.67
2022-12-12T20:57:04.379Z,34.07
2022-12-12T20:59:31.179Z,27.77
2022-12-12T21:01:57.851Z,29.53
2022-12-12T21:04:24.695Z,30.50
2022-12-12T21:06:51.911Z,33.40
2022-12-12T21:09:24.856Z,34.13
2022-12-12T21:11:54.540Z,33.37
2022-12-12T21:14:24.343Z,34.53
2022-12-12T21:16:51.441Z,34.10
2022-12-12T21:19:19.003Z,33.40
2022-12-12T21:21:46.140Z,32.80
2022-12-12T21:24:14.117Z,32.83
2022-12-12T21:26:40.987Z,29.93
2022-12-12T21:29:07.695Z,30.80
2022-12-12T21:31:37.862Z,35.23
2022-12-12T21:34:05.894Z,32.10
2022-12-12T21:36:33.799Z,31.90
2022-12-12T21:39:02.454Z,33.47
2022-12-12T21:41:29.311Z,34.03
2022-12-12T21:43:59.450Z,31.70
2022-12-12T21:46:28.168Z,32.87
2022-12-12T21:49:14.449Z,31.93
2022-12-12T21:51:41.778Z,39.57
2022-12-12T21:54:10.349Z,34.50
2022-12-12T21:56:37.328Z,30.73
2022-12-12T21:59:04.388Z,36.10
2022-12-12T22:01:34.452Z,32.87
2022-12-12T22:04:01.616Z,34.60
2022-12-12T22:06:30.918Z,34.83
2022-12-12T22:08:59.956Z,34.97
2022-12-12T22:11:40.130Z,34.90
2022-12-12T22:14:09.307Z,41.60
2022-12-12T22:16:37.016Z,40.27
2022-12-12T22:19:07.093Z,43.53
2022-12-12T22:21:34.721Z,45.87
2022-12-12T22:24:02.396Z,43.97
2022-12-12T22:26:39.193Z,47.93
2022-12-12T22:29:12.278Z,47.30
2022-12-12T22:31:40.335Z,49.57
2022-12-12T22:34:11.386Z,44.57
2022-12-12T22:36:39.303Z,42.30
2022-12-12T22:39:08.373Z,40.77
2022-12-12T22:41:35.112Z,45.00
2022-12-12T22:44:04.988Z,37.50
2022-12-12T22:46:32.194Z,39.97
2022-12-12T22:49:01.232Z,32.87
2022-12-12T22:51:31.135Z,41.37
2022-12-12T22:53:59.654Z,38.37
2022-12-12T22:56:28.786Z,46.77
2022-12-12T22:58:55.679Z,42.30
2022-12-12T23:01:23.388Z,42.57
2022-12-12T23:03:51.237Z,45.03
2022-12-12T23:06:20.520Z,35.67
2022-12-12T23:08:52.580Z,43.10
2022-12-12T23:11:20.520Z,44.40
2022-12-12T23:13:47.419Z,41.53
2022-12-12T23:16:19.592Z,41.10
2022-12-12T23:18:47.640Z,43.33
2022-12-12T23:21:17.483Z,44.50
2022-12-12T23:23:44.938Z,40.10
2022-12-12T23:26:19.944Z,48.30
2022-12-12T23:28:47.297Z,41.07
2022-12-12T23:31:16.842Z,43.13
2022-12-12T23:33:43.521Z,44.87
2022-12-12T23:36:15.188Z,37.50
2022-12-12T23:38:42.321Z,37.83
2022-12-12T23:41:11.829Z,36.50
2022-12-12T23:43:39.043Z,32.27
2022-12-12T23:46:08.176Z,37.60
2022-12-12T23:48:35.616Z,34.97
2022-12-12T23:51:02.457Z,31.73
2022-12-12T23:53:31.570Z,34.70
2022-12-12T23:56:04.198Z,36.37
2022-12-12T23:58:30.899Z,32.97
